Georgetown, MA (01833)

9:30 AM EST on January 26, 2015 (GMT -0500)
APRSWXNET Boxford MA US | Change Station
CLOSE
Current Station
Personal Weather Station
Location: Boxford, MA
Elevation: 164 ft
Nearby Weather Stations
Active Advisory: Blizzard Warning

Elev 164 ft 42.70 °N, 71.02 °W | Updated 28 minutes ago

Partly Cloudy
Partly Cloudy
10 °F
Feels Like 10 °F
N
0
Wind Variable Wind from WSW
Gusts 3.0 mph

Today
High -- | Low -- °F
--% Chance of Precip.
Yesterday
High -- | Low -- °F
Precip. -- in
7:04 AM 4:49 PM
Waxing Crescent, 43% visible
Pressure 30.19 in
Visibility 10.0 miles
Clouds Clear
Windchill 10 °F
Dew Point 2 °F
Humidity 69%
Rainfall 0.07 in
Snow Depth Not available.
UV 1 out of 12
Pollen .10 out of 12
Air Quality Not available.
Flu Activity Not available.
METAR KLWM 261354Z 34004KT 10SM CLR M13/M19 A3018 RMK AO2 SLP221 T11331194

More Conditions Fewer Conditions

Pressure 30.19 in
Visibility 10.0 miles
Clouds Clear
Windchill 10 °F
Dew Point 2 °F
Humidity 69%
Rainfall 0.07 in
Snow Depth Not available.
UV 1 out of 12
Pollen .10 out of 12
Air Quality Not available.
Flu Activity Not available.
METAR KLWM 261354Z 34004KT 10SM CLR M13/M19 A3018 RMK AO2 SLP221 T11331194

More Conditions Fewer Conditions

10-Day Weather Forecast

Almanac

Astronomy

Jan. 26, 2015 Rise Set
Actual Time
Civil Twilight
Nautical Twilight
Astronomical Twilight
Moon
Length of Visible Light
Length of Day
Tomorrow will be .
, % of the Moon is Illuminated

Today's Extremes

State Highs State Lows

Community

WunderPhotos

Upload Photos

1,790,226 photos uploaded!

WunderBlogs® & News

Nearby

Air Quality

  Air Quality AQ Index Pollutant
Not available.

Snow Depth

Station Depth Elevation

Earthquake Activity

City Distance Mag. Time & Date
Minimum magnitude displayed is 2.5.

Coastal Water Temperatures

Place Temperature

Nearby Weather Stations